Hlavní strana
METAR-TAF:

METAR-TAF

Letiště :

Jefferson City Memorial Airport

Jefferson City, Missouri, Spojené státy americké

zeměpisná šířka: 38-35-40N, zeměpisná délka: 092-09-21W, výška: 167 m

Aktuální stav počasí

Zpráva byla vytvořena před 25 minutami, v 05:53 UTC
Západní vítr 11 kt
Teplota 1°C
Vlhkost vzduchu 80%
Tlak 1017 hPa
Viditelnost: 11.3 km
Zataženo ve výšce 1900 ft

METAR: KJEF 250553Z AUTO 27011KT 7SM OVC019 01/M02 A3003 RMK AO2 SLP164 T00111017 10017 20011 400170006 51003

Čas: 00:18 (06:18 UTC)


TAF: chybějící

Stav a předpovědi počasí z více než 4 000 letišť (zprávy METAR a TAF).

Červené a žluté tečky na mapě představují dostupné meteorologické stanice.

Když kurzor umístíte na tečku, zobrazí se název stanice.

Pak kliknutím zobrazíte stav a předpověď počasí.

Chcete-li změnit mapu, kliknutím na zelené tlačítko se znaménkem +mapu přiblížíte, kliknutím na zelené tlačítko se znaménkem – mapu oddálíte a kliknutím na zelené šipky přejdete na sousední mapy.


METAR-TAF: